Gio Acosta

Recruteur - Seattle Sounders
23 Sept 2027
Jeudi
Processus

Personnalité

Adaptabilité (6) Ambition (10) Controverse (3) Loyauté (15) Pression (17) Professionnalisme (7) Sportivité (6) Tempérament (3)

Profil

Style d'entraînement Démocratique
Diplôme Continental B
Détermination 11
Gestion des joueurs 9
Motivation 5
Discipline 6
Satisfaction professionnelle
100%
Fatigue
0%
Rôle Recruteur
Salaire 54.1K p/s
Contrat 14.03.2029

Performance

Comportement Bon
Efficacité de l'entraînement
39%
Développement des joueurs
25%
Prévention des blessures
45%
Mise en place tactique
25%

Événements récents

A participé à une réunion de recrutement maintenant
A participé à une réunion de recrutement maintenant
A participé à une réunion de recrutement 7j
A participé à une réunion de recrutement 7j
A participé à une réunion de recrutement 7j
A participé à une réunion de recrutement 7j
A participé à une réunion de recrutement 14j
Anniversaire 14j

Suivi en cours

130
Joueur Club Statut Capacité Confiance Observé Dernière observation Dernier vote
Michele Cerofolini Bari Actif 116 / 130 40% 1 07.07.2027 -
Wessam Abou Ali Columbus Crew Actif 139 / 136 58% 1 14.02.2027 Approuver
Kostantis Tzolakis Hull City Actif 135 / 153 40% 1 13.02.2027 -
Maduka Okoye Udinese Actif 137 / 137 40% 1 13.02.2027 -
Giacomo Raspadori Atalanta Actif 137 / 152 40% 2 12.02.2027 -
Milan van Ewijk Mansfield Town Actif 119 / 136 40% 1 11.02.2027 -
Anton Stach Leeds United Actif 146 / 149 40% 1 11.02.2027 Plus d'infos
Dara O'Shea Ipswich Town Actif 139 / 124 40% 2 10.02.2027 -
Bosun Lawal Stoke City Actif 141 / 138 40% 1 10.02.2027 -
Adrien Truffert Bournemouth Actif 163 / 149 40% 1 09.02.2027 -
Welington Southampton Actif 145 / 120 40% 1 09.02.2027 -
Caoimhin Kelleher Brentford Actif 154 / 150 40% 1 09.02.2027 -
Robin Roefs Sunderland Actif 131 / 152 40% 1 09.02.2027 -
Ismaïla Sarr Crystal Palace Actif 137 / 159 40% 1 07.02.2027 -
Dominic Calvert-Lewin Leeds United Actif 158 / 149 40% 1 07.02.2027 -
Denis Adamov Zenit Actif 135 / 129 40% 3 06.02.2027 -
Kristoffer Lund Birmingham Actif 141 / 117 40% 2 06.02.2027 -
Hwang Hee-Chan Wolverhampton Actif 119 / 130 40% 1 06.02.2027 -
Yoane Wissa Newcastle United Actif 154 / 143 40% 1 06.02.2027 -
Jimmy Dunne Queens Park Rangers Actif 128 / 127 40% 1 06.02.2027 -
Chris Mepham West Bromwich Albion Actif 136 / 122 40% 2 04.02.2027 -
Anel Ahmedhodžić Burnley Actif 142 / 127 40% 1 04.02.2027 -
Tyler Adams Bournemouth Actif 141 / 141 40% 1 04.02.2027 -
Georginio Rutter Brighton Actif 132 / 149 40% 1 04.02.2027 -
Arijanet Murić Sassuolo Actif 148 / 131 40% 1 02.02.2027 -
Dango Ouattara Brentford Actif 145 / 139 40% 1 31.01.2027 -
James Trafford Leeds United Actif 129 / 133 40% 1 31.01.2027 -
Igor Burnley Actif 154 / 145 40% 1 29.01.2027 -
Ross McCrorie Bristol City Actif 112 / 115 40% 1 29.01.2027 -
Matt O'Riley Brighton Actif 153 / 149 40% 1 27.01.2027 -
Harry Clarke Preston Actif 136 / 136 40% 1 27.01.2027 -
Ibrahim Sangaré Nottingham Forest Actif 154 / 138 40% 1 27.01.2027 -
Dávid Strelec Middlesbrough Actif 151 / 130 40% 1 25.01.2027 -
Oli McBurnie Hull City Actif 149 / 143 40% 1 25.01.2027 -
Callum Doyle Wrexham Actif 135 / 122 40% 1 25.01.2027 -
Hany Mukhtar Spezia Actif 143 / 140 40% 2 22.01.2027 -
Youssef En-Nesyri Al-Ittihad Actif 148 / 149 40% 1 22.01.2027 -
Kwadwo Duah Ludogorets Actif 131 / 129 40% 2 21.01.2027 -
João Victor CSKA Moscow Actif 118 / 119 40% 1 21.01.2027 -
Théo Hernández Al-Hilal Actif 168 / 145 40% 1 21.01.2027 -
Julián Quiñones Lokomotiv Moscow Actif 141 / 148 40% 1 21.01.2027 -
Esequiel Barco Spartak Moscow Actif 135 / 136 40% 1 21.01.2027 -
Nicolò Bertola Udinese Actif 136 / 145 40% 1 18.01.2027 -
Raoul Bellanova Atalanta Actif 165 / 148 40% 1 18.01.2027 -
Manfred Ugalde Spartak Moscow Actif 141 / 139 40% 2 17.01.2027 -
Che Adams Torino Actif 140 / 135 40% 2 17.01.2027 -
Justin Bijlow Genoa Actif 162 / 154 40% 1 17.01.2027 -
Jonathan Klinsmann Cesena Actif 122 / 125 40% 1 17.01.2027 -
Gustavo Mantuan Zenit Actif 131 / 136 40% 1 12.01.2027 -
Giovanni Simeone Torino Actif 153 / 129 40% 3 10.01.2027 -
Nikola Vasilj Al-Diriyah Actif 127 / 126 40% 1 10.01.2027 -
Nicolás Fernández Mercau Shakhtar Négociation 128 / 133 40% 3 05.01.2027 Observer
Josh Doig Sassuolo Actif 149 / 143 40% 1 02.01.2027 -
Oleksandr Pikhalionok Dynamo Kyiv Actif 135 / 129 40% 1 01.01.2027 -
Conrad Wallem Austria Wien Actif 112 / 122 40% 4 31.12.2026 -
Yves Bissouma Tottenham Actif 158 / 147 40% 1 31.12.2026 -
Lorenzo Colombo Genoa Actif 136 / 133 40% 1 30.12.2026 -
Zakaria Aboukhlal Torino Actif 139 / 139 40% 1 29.12.2026 -
Mohamed Camara Maccabi Tel Aviv Actif 141 / 132 40% 1 27.12.2026 -
Ruben van Bommel Ferencvaros Actif 140 / 134 40% 1 27.12.2026 -
Bento Al-Nassr Actif 127 / 120 40% 3 25.12.2026 Observer
João Gomes Aston Villa Actif 125 / 141 40% 3 25.12.2026 -
Rubens Dinamo Moscow Actif 125 / 131 40% 3 25.12.2026 -
Ignacio Chicco Aldosivi Actif 127 / 116 40% 1 25.12.2026 -
Dayne St. Clair Inter Miami CF Actif 125 / 118 40% 1 24.12.2026 -
Álex Centelles Levski Actif 116 / 122 40% 1 20.12.2026 -
Wendel Zenit Actif 153 / 139 40% 1 19.12.2026 -
Petar Stanić Ludogorets Actif 145 / 134 40% 1 19.12.2026 -
Nobel Mendy Hull City Actif 121 / 122 40% 2 17.12.2026 -
Valentín Barco Chelsea Actif 145 / 155 40% 1 15.12.2026 -
Lucas Souto Defensa y Justicia Actif 121 / 116 40% 1 15.12.2026 -
Mohamed Ali Ben Romdhane Al Ahly Actif 138 / 124 40% 2 14.12.2026 -
Bradley Tau SuperSport United Actif 129 / 134 40% 1 12.12.2026 -
Pedro Bicalho Qarabag Actif 113 / 139 40% 1 12.12.2026 -
Matevž Vidovšek Olimpija Ljubljana Actif 126 / 120 40% 2 11.12.2026 -
Daniil Khudyakov Sturm Graz Actif 121 / 127 40% 2 11.12.2026 -
Rúben Neves Al-Hilal Actif 162 / 158 40% 5 11.12.2026 -
Steven Bergwijn Al-Ittihad Actif 155 / 145 40% 2 10.12.2026 -
Felipe Augusto Zenit Actif 133 / 131 40% 3 10.12.2026 -
Luciano Gondou CSKA Moscow Actif 125 / 121 40% 3 08.12.2026 -
Endrick Real Madrid Actif 150 / 141 40% 5 08.12.2026 -
Sipho Chaine Orlando Pirates Actif 123 / 115 40% 1 06.12.2026 -
Lovre Rogić HNK Rijeka Actif 118 / 123 40% 1 06.12.2026 -
Eduard Spertsyan Al-Ahli Actif 125 / 140 40% 2 02.12.2026 -
Leandro Lozano Boca Juniors Actif 142 / 137 40% 1 30.11.2026 -
Alan Lescano Argentinos Juniors Actif 125 / 130 40% 1 30.11.2026 -
Sergio Reguilón Inter Miami CF Actif 140 / 127 40% 1 27.11.2026 -
Bryan Ramírez FC Cincinnati Actif 139 / 125 40% 1 26.11.2026 -
Karim Konaté Red Bull Salzburg Actif 126 / 150 40% 3 25.11.2026 -
Maílson Al-Taawoun Actif 133 / 125 40% 1 25.11.2026 -
Maxim De Cuyper Brighton Actif 145 / 131 40% 1 24.11.2026 -
Nicolás Romero Minnesota United FC Actif 116 / 120 40% 1 22.11.2026 -
Marcelo Saracchi Houston Dynamo Actif 137 / 131 40% 1 20.11.2026 -
Volodymyr Brazhko Dynamo Kyiv Actif 128 / 120 40% 1 20.11.2026 -
Pep Biel Charlotte Football Club Actif 120 / 128 40% 2 17.11.2026 -
Yan Diomandé Real Madrid Actif 156 / 153 40% 1 17.11.2026 -
Luka Kurtovic NK Domzale Actif 129 / 124 40% 1 17.11.2026 -
Adrián Marín Persepolis Actif 114 / 122 40% 1 14.11.2026 -
Youssef Belammari Al Ahly Actif 139 / 127 40% 1 12.11.2026 -
Igor Leschuk Dinamo Moscow Actif 109 / 127 40% 2 10.11.2026 -
Musa Barrow Al-Khaleej Actif 142 / 142 40% 2 07.11.2026 -
Kyrylo Fesiun Shakhtar Actif 118 / 126 40% 2 07.11.2026 -
Roman Celentano FC Cincinnati Actif 123 / 115 40% 1 07.11.2026 -
Martín Ojeda Orlando City Actif 137 / 137 40% 3 02.11.2026 -
Breel Embolo Atlanta United FC Actif 130 / 134 40% 2 30.10.2026 -
Yusuke Matsuo Esteghlal Actif 134 / 122 40% 2 30.10.2026 -
Ivan Toney Al-Ahli Actif 140 / 142 40% 1 28.10.2026 -
Drake Callender Minnesota United FC Actif 131 / 126 40% 2 23.10.2026 -
Kein Sato FC Tokyo Actif 118 / 136 40% 1 22.10.2026 -
Mojmír Chytil NK Maribor Actif 134 / 137 40% 2 18.10.2026 -
Maurits Kjærgaard Red Bull Salzburg Actif 134 / 128 40% 2 18.10.2026 -
Elias Achouri San Diego Football Club Actif 121 / 127 40% 1 07.10.2026 -
Zack Steffen Spartak Moscow Actif 125 / 136 40% 1 07.10.2026 -
Cristian Espinoza Nashville SC Actif 139 / 124 40% 1 04.10.2026 -
Myrto Uzuni Austin FC Actif 124 / 122 40% 1 03.10.2026 -
Antony Portland Timbers Actif 140 / 126 40% 1 29.09.2026 -
Diego Romero Universitario Actif 137 / 122 40% 1 27.09.2026 -
Bruno Varela Najran Actif 111 / 121 40% 1 26.09.2026 -
Martin Zlomislić Qarabag Actif 129 / 120 40% 1 22.09.2026 -
Renato Solís Sporting Cristal Actif 129 / 127 40% 2 20.09.2026 -
Mateusz Kochalski Dynamo Kyiv Actif 135 / 131 40% 1 19.09.2026 -
Dominik Takáč Slovan Bratislava Actif 116 / 122 40% 1 19.09.2026 -
Pavel Bucha FC Cincinnati Actif 127 / 137 40% 1 19.09.2026 -
Ľubomír Belko Viking Actif 118 / 121 40% 2 16.09.2026 -
Patrick Schulte Columbus Crew Actif 124 / 126 40% 1 16.09.2026 -
Jonathan Bamba Chicago Fire Actif 131 / 138 40% 1 14.09.2026 -
Patrick Berg Bodo/Glimt Actif 132 / 154 40% 1 14.09.2026 -
Gabriel Jesus Barcelona Actif 167 / 154 40% 1 10.09.2026 -
Anders Dreyer San Diego Football Club Actif 121 / 133 40% 1 08.09.2026 -
Peio Canales Athletic Bilbao Actif 134 / 144 40% 1 01.08.2026 -